Pine Bluff, AR (71611)

8:58 AM CDT on March 27, 2015 (GMT -0500)
Pine Bluff - Deerfield | | Change Station
CLOSE
Current Station
Personal Weather Station
Location: Pine Bluff, AR
Elevation: 228 ft
Nearby Weather Stations

Elev 228 ft 34.15 °N, 92.01 °W | Updated 15 seconds ago

Mostly Cloudy
Mostly Cloudy
42.3 °F
Feels Like 42 °F
N
0.0
Wind Variable Wind from North
Gusts 0.0 mph

Today
High -- | Low -- °F
--% Chance of Precip.
Yesterday
High -- | Low -- °F
Precip. -- in
7:02 AM 7:24 PM
First Quarter, 53% visible
Pressure 30.09 in
Visibility 10.0 miles
Clouds Mostly Cloudy 10000 ft
Windchill 42 °F
Dew Point 42 °F
Humidity 99%
Rainfall 0.00 in
Snow Depth Not available.
UV 1 out of 12
Pollen 9.30 out of 12
Air Quality Not available.
Flu Activity Not available.
METAR KPBF 271353Z AUTO 12003KT 10SM BKN100 07/06 A3009 RMK AO2 SLP190 T00720061

More Conditions Fewer Conditions

Pressure 30.09 in
Visibility 10.0 miles
Clouds Mostly Cloudy 10000 ft
Windchill 42 °F
Dew Point 42 °F
Humidity 99%
Rainfall 0.00 in
Snow Depth Not available.
UV 1 out of 12
Pollen 9.30 out of 12
Air Quality Not available.
Flu Activity Not available.
METAR KPBF 271353Z AUTO 12003KT 10SM BKN100 07/06 A3009 RMK AO2 SLP190 T00720061

More Conditions Fewer Conditions

10-Day Weather Forecast

Almanac

Astronomy

Mar. 27, 2015 Rise Set
Actual Time
Civil Twilight
Nautical Twilight
Astronomical Twilight
Moon
Length of Visible Light
Length of Day
Tomorrow will be .
, % of the Moon is Illuminated

Today's Extremes

State Highs State Lows

Community

WunderPhotos

Upload Photos

1,808,735 photos uploaded!

WunderBlogs® & News

Nearby

Air Quality

  Air Quality AQ Index Pollutant
Not available.

Snow Depth

Station Depth Elevation

Earthquake Activity

City Distance Mag. Time & Date
Minimum magnitude displayed is 2.5.

Coastal Water Temperatures

Place Temperature

Stations

Nearby Weather Stations

Station Location Temp. Windchill Dew Point Humidity Wind Precip. Elev Updated Type